Terminal Aerodrome Forecast
Issued by NWS

Home | Current Version | Previous Version | Text Only | Print | Product List | Glossary Off
Versions: 1 2 3 4 5 6 7 8 9 10 11 12

000
FTUS43 KGRB 231100
TAFATW
TAF
KATW 231133Z 2312/2412 31009KT P6SM SCT035
     FM231400 32009G15KT P6SM SCT025 BKN050
      TEMPO 2314/2317 BKN025
     FM231700 30011KT P6SM SCT040 SCT060
     FM240100 36004KT P6SM SKC=

USA.gov is the U.S. government's official web portal to all federal, state and local government web resources and services.